Strona główna
METAR-TAF:

METAR-TAF

Lotnisko :

Morrisville-Stowe State Airport

Morrisville, Vermont, Stany Zjednoczone

Szerokość geograficzna: 44-32-10N, Długość geograficzna: 072-36-58W, wysokość: 223 m

Aktualna obserwacja pogody

Raport powstał 20 minut temu, godzina 21:54 UTC
Cisza
Temperatura 0°C
Wilgotność 80%
Ciśnienie 1016 hPa
Widzialność: 16.1 km
Mało chmury na wysokości 12000 ft

METAR: KMVL 162154Z AUTO 00000KT 10SM FEW120 00/M03 A3001 RMK AO2 SLP173 T00001028

czas: 17:14 (22:14 UTC)


TAF: brakujący

Obserwacja i prognoza pogody dla ponad 4000 lotnisk (raport METAR i TAF).

Dostępne stacje oznaczono żółtymi i czerwonymi punktami na mapie.

Najedź kursorem aby zobaczyć nazwę stacji.

Kliknij aby zobaczyć obserwacje i prognozy pogody.

Aby zmienić mapę: kliknij na zielony przycisk z czarnym krzyżykiem, aby powiększyć; na zielony przycisk z myślnikiem, aby pomniejszyć; na zielone strzałki, aby przejść do map sąsiednich.


METAR-TAF: